sensor_id;sensor_type;location;lat;lon;timestamp;P1;durP1;ratioP1;P2;durP2;ratioP2
42702;SDS011;28341;52.064;4.920;2023-10-13T00:01:39;25.55;;;15.82;;
42702;SDS011;28341;52.064;4.920;2023-10-13T00:03:43;27.00;;;16.88;;
42702;SDS011;28341;52.064;4.920;2023-10-13T00:05:48;27.55;;;17.40;;
42702;SDS011;28341;52.064;4.920;2023-10-13T00:07:56;28.20;;;16.77;;
42702;SDS011;28341;52.064;4.920;2023-10-13T00:10:02;26.13;;;17.25;;
42702;SDS011;28341;52.064;4.920;2023-10-13T00:12:14;28.50;;;18.23;;
42702;SDS011;28341;52.064;4.920;2023-10-13T00:14:23;28.88;;;19.10;;
42702;SDS011;28341;52.064;4.920;2023-10-13T00:16:33;34.88;;;20.08;;
42702;SDS011;28341;52.064;4.920;2023-10-13T00:18:40;27.63;;;20.33;;
42702;SDS011;28341;52.064;4.920;2023-10-13T00:20:42;31.05;;;20.83;;
42702;SDS011;28341;52.064;4.920;2023-10-13T00:22:50;31.85;;;20.27;;
42702;SDS011;28341;52.064;4.920;2023-10-13T00:24:59;33.08;;;22.10;;
42702;SDS011;28341;52.064;4.920;2023-10-13T00:27:04;32.63;;;22.65;;
42702;SDS011;28341;52.064;4.920;2023-10-13T00:29:11;35.50;;;23.10;;
42702;SDS011;28341;52.064;4.920;2023-10-13T00:31:18;31.10;;;22.17;;
42702;SDS011;28341;52.064;4.920;2023-10-13T00:33:23;39.70;;;23.60;;
42702;SDS011;28341;52.064;4.920;2023-10-13T00:35:28;37.38;;;23.38;;
42702;SDS011;28341;52.064;4.920;2023-10-13T00:37:42;38.90;;;23.05;;
42702;SDS011;28341;52.064;4.920;2023-10-13T00:39:47;34.90;;;23.55;;
42702;SDS011;28341;52.064;4.920;2023-10-13T00:41:59;34.60;;;22.92;;
42702;SDS011;28341;52.064;4.920;2023-10-13T00:44:08;32.42;;;22.27;;
42702;SDS011;28341;52.064;4.920;2023-10-13T00:46:10;30.55;;;21.70;;
42702;SDS011;28341;52.064;4.920;2023-10-13T00:48:19;30.17;;;22.33;;
42702;SDS011;28341;52.064;4.920;2023-10-13T00:50:24;30.65;;;21.33;;
42702;SDS011;28341;52.064;4.920;2023-10-13T00:52:31;33.75;;;21.75;;
42702;SDS011;28341;52.064;4.920;2023-10-13T00:54:33;29.50;;;20.30;;
42702;SDS011;28341;52.064;4.920;2023-10-13T00:56:38;30.23;;;20.30;;
42702;SDS011;28341;52.064;4.920;2023-10-13T00:58:49;28.00;;;20.35;;
42702;SDS011;28341;52.064;4.920;2023-10-13T01:00:53;31.52;;;20.98;;
42702;SDS011;28341;52.064;4.920;2023-10-13T01:02:57;30.60;;;20.85;;
42702;SDS011;28341;52.064;4.920;2023-10-13T01:05:07;32.08;;;19.25;;
42702;SDS011;28341;52.064;4.920;2023-10-13T01:09:16;26.60;;;19.83;;
42702;SDS011;28341;52.064;4.920;2023-10-13T01:11:18;28.60;;;19.53;;
42702;SDS011;28341;52.064;4.920;2023-10-13T01:13:24;27.60;;;19.35;;
42702;SDS011;28341;52.064;4.920;2023-10-13T01:15:29;30.25;;;19.45;;
42702;SDS011;28341;52.064;4.920;2023-10-13T01:17:35;23.63;;;18.50;;
42702;SDS011;28341;52.064;4.920;2023-10-13T01:19:37;26.63;;;19.10;;
42702;SDS011;28341;52.064;4.920;2023-10-13T01:21:43;32.03;;;20.35;;
42702;SDS011;28341;52.064;4.920;2023-10-13T01:23:47;30.80;;;19.80;;
42702;SDS011;28341;52.064;4.920;2023-10-13T01:25:52;32.10;;;19.83;;
42702;SDS011;28341;52.064;4.920;2023-10-13T01:30:01;27.42;;;18.05;;
42702;SDS011;28341;52.064;4.920;2023-10-13T01:32:06;27.67;;;18.10;;
42702;SDS011;28341;52.064;4.920;2023-10-13T01:34:13;29.75;;;19.23;;
42702;SDS011;28341;52.064;4.920;2023-10-13T01:36:22;26.70;;;18.48;;
42702;SDS011;28341;52.064;4.920;2023-10-13T01:38:26;28.63;;;17.58;;
42702;SDS011;28341;52.064;4.920;2023-10-13T01:40:31;25.95;;;17.48;;
42702;SDS011;28341;52.064;4.920;2023-10-13T01:42:35;24.75;;;17.90;;
42702;SDS011;28341;52.064;4.920;2023-10-13T01:44:37;30.07;;;17.43;;
42702;SDS011;28341;52.064;4.920;2023-10-13T01:46:41;27.67;;;17.40;;
42702;SDS011;28341;52.064;4.920;2023-10-13T01:48:43;26.20;;;17.77;;
42702;SDS011;28341;52.064;4.920;2023-10-13T01:50:48;26.30;;;16.50;;
42702;SDS011;28341;52.064;4.920;2023-10-13T01:52:56;21.23;;;15.30;;
42702;SDS011;28341;52.064;4.920;2023-10-13T01:55:13;24.23;;;16.13;;
42702;SDS011;28341;52.064;4.920;2023-10-13T01:57:18;25.60;;;16.70;;
42702;SDS011;28341;52.064;4.920;2023-10-13T01:59:24;28.05;;;16.38;;
42702;SDS011;28341;52.064;4.920;2023-10-13T02:01:32;31.73;;;16.10;;
42702;SDS011;28341;52.064;4.920;2023-10-13T02:03:37;23.65;;;15.48;;
42702;SDS011;28341;52.064;4.920;2023-10-13T02:05:47;19.80;;;14.23;;
42702;SDS011;28341;52.064;4.920;2023-10-13T02:07:57;23.25;;;13.77;;
42702;SDS011;28341;52.064;4.920;2023-10-13T02:10:08;25.58;;;13.80;;
42702;SDS011;28341;52.064;4.920;2023-10-13T02:12:14;22.10;;;13.48;;
42702;SDS011;28341;52.064;4.920;2023-10-13T02:14:19;21.27;;;12.80;;
42702;SDS011;28341;52.064;4.920;2023-10-13T02:16:26;20.38;;;13.02;;
42702;SDS011;28341;52.064;4.920;2023-10-13T02:18:29;24.25;;;13.10;;
42702;SDS011;28341;52.064;4.920;2023-10-13T02:20:41;21.45;;;12.88;;
42702;SDS011;28341;52.064;4.920;2023-10-13T02:22:44;20.70;;;13.50;;
42702;SDS011;28341;52.064;4.920;2023-10-13T02:24:52;18.98;;;12.35;;
42702;SDS011;28341;52.064;4.920;2023-10-13T02:26:54;22.80;;;13.57;;
42702;SDS011;28341;52.064;4.920;2023-10-13T02:29:03;21.33;;;14.07;;
42702;SDS011;28341;52.064;4.920;2023-10-13T02:31:10;25.67;;;13.82;;
42702;SDS011;28341;52.064;4.920;2023-10-13T02:33:14;24.80;;;13.52;;
42702;SDS011;28341;52.064;4.920;2023-10-13T02:35:22;23.38;;;13.80;;
42702;SDS011;28341;52.064;4.920;2023-10-13T02:37:31;26.27;;;14.15;;
42702;SDS011;28341;52.064;4.920;2023-10-13T02:39:34;20.70;;;13.13;;
42702;SDS011;28341;52.064;4.920;2023-10-13T02:41:41;23.17;;;13.15;;
42702;SDS011;28341;52.064;4.920;2023-10-13T02:43:48;20.08;;;14.10;;
42702;SDS011;28341;52.064;4.920;2023-10-13T02:45:53;22.38;;;13.70;;
42702;SDS011;28341;52.064;4.920;2023-10-13T02:48:01;19.75;;;13.25;;
42702;SDS011;28341;52.064;4.920;2023-10-13T02:50:17;22.25;;;13.85;;
42702;SDS011;28341;52.064;4.920;2023-10-13T02:52:24;23.80;;;14.48;;
42702;SDS011;28341;52.064;4.920;2023-10-13T02:54:34;24.30;;;13.48;;
42702;SDS011;28341;52.064;4.920;2023-10-13T02:56:41;19.65;;;12.60;;
42702;SDS011;28341;52.064;4.920;2023-10-13T02:58:57;21.95;;;13.77;;
42702;SDS011;28341;52.064;4.920;2023-10-13T03:01:06;22.42;;;14.32;;
42702;SDS011;28341;52.064;4.920;2023-10-13T03:03:20;23.60;;;14.82;;
42702;SDS011;28341;52.064;4.920;2023-10-13T03:05:24;25.33;;;13.40;;
42702;SDS011;28341;52.064;4.920;2023-10-13T03:07:29;22.10;;;13.13;;
42702;SDS011;28341;52.064;4.920;2023-10-13T03:09:34;22.83;;;14.55;;
42702;SDS011;28341;52.064;4.920;2023-10-13T03:11:37;20.23;;;12.65;;
42702;SDS011;28341;52.064;4.920;2023-10-13T03:13:42;22.35;;;14.00;;
42702;SDS011;28341;52.064;4.920;2023-10-13T03:15:45;25.55;;;14.23;;
42702;SDS011;28341;52.064;4.920;2023-10-13T03:17:50;25.17;;;14.43;;
42702;SDS011;28341;52.064;4.920;2023-10-13T03:19:57;22.88;;;14.40;;
42702;SDS011;28341;52.064;4.920;2023-10-13T03:22:07;21.58;;;14.55;;
42702;SDS011;28341;52.064;4.920;2023-10-13T03:24:11;24.60;;;14.32;;
42702;SDS011;28341;52.064;4.920;2023-10-13T03:26:22;25.75;;;14.25;;
42702;SDS011;28341;52.064;4.920;2023-10-13T03:28:24;28.10;;;15.07;;
42702;SDS011;28341;52.064;4.920;2023-10-13T03:30:34;24.48;;;15.18;;
42702;SDS011;28341;52.064;4.920;2023-10-13T03:32:36;26.85;;;15.40;;
42702;SDS011;28341;52.064;4.920;2023-10-13T03:34:46;26.00;;;15.85;;
42702;SDS011;28341;52.064;4.920;2023-10-13T03:37:14;30.70;;;16.02;;
42702;SDS011;28341;52.064;4.920;2023-10-13T03:39:19;25.33;;;15.10;;
42702;SDS011;28341;52.064;4.920;2023-10-13T03:41:28;25.33;;;15.82;;
42702;SDS011;28341;52.064;4.920;2023-10-13T03:43:37;27.40;;;16.48;;
42702;SDS011;28341;52.064;4.920;2023-10-13T03:45:52;28.38;;;16.83;;
42702;SDS011;28341;52.064;4.920;2023-10-13T03:48:00;30.98;;;16.92;;
42702;SDS011;28341;52.064;4.920;2023-10-13T03:50:09;26.77;;;16.00;;
42702;SDS011;28341;52.064;4.920;2023-10-13T03:52:32;25.25;;;14.93;;
42702;SDS011;28341;52.064;4.920;2023-10-13T03:54:36;22.27;;;14.20;;
42702;SDS011;28341;52.064;4.920;2023-10-13T03:56:41;21.23;;;13.68;;
42702;SDS011;28341;52.064;4.920;2023-10-13T03:58:46;22.50;;;13.43;;
42702;SDS011;28341;52.064;4.920;2023-10-13T04:00:48;23.85;;;14.32;;
42702;SDS011;28341;52.064;4.920;2023-10-13T04:02:53;21.48;;;13.75;;
42702;SDS011;28341;52.064;4.920;2023-10-13T04:05:09;23.60;;;14.05;;
42702;SDS011;28341;52.064;4.920;2023-10-13T04:07:33;25.60;;;15.13;;
42702;SDS011;28341;52.064;4.920;2023-10-13T04:10:03;26.98;;;15.45;;
42702;SDS011;28341;52.064;4.920;2023-10-13T04:12:21;25.45;;;15.80;;
42702;SDS011;28341;52.064;4.920;2023-10-13T04:14:38;28.27;;;15.65;;
42702;SDS011;28341;52.064;4.920;2023-10-13T04:17:11;27.65;;;16.50;;
42702;SDS011;28341;52.064;4.920;2023-10-13T04:19:15;21.40;;;14.98;;
42702;SDS011;28341;52.064;4.920;2023-10-13T04:21:23;24.92;;;15.68;;
42702;SDS011;28341;52.064;4.920;2023-10-13T04:23:42;24.33;;;16.80;;
42702;SDS011;28341;52.064;4.920;2023-10-13T04:25:59;24.73;;;16.73;;
42702;SDS011;28341;52.064;4.920;2023-10-13T04:28:21;23.98;;;17.25;;
42702;SDS011;28341;52.064;4.920;2023-10-13T04:30:37;21.05;;;16.05;;
42702;SDS011;28341;52.064;4.920;2023-10-13T04:32:57;25.00;;;17.15;;
42702;SDS011;28341;52.064;4.920;2023-10-13T04:35:35;22.65;;;16.45;;
42702;SDS011;28341;52.064;4.920;2023-10-13T04:37:48;20.25;;;15.48;;
42702;SDS011;28341;52.064;4.920;2023-10-13T04:40:00;19.35;;;14.80;;
42702;SDS011;28341;52.064;4.920;2023-10-13T04:44:26;22.00;;;16.02;;
42702;SDS011;28341;52.064;4.920;2023-10-13T04:46:43;18.52;;;15.40;;
42702;SDS011;28341;52.064;4.920;2023-10-13T04:49:08;22.42;;;15.57;;
42702;SDS011;28341;52.064;4.920;2023-10-13T04:51:27;16.48;;;14.43;;
42702;SDS011;28341;52.064;4.920;2023-10-13T04:53:50;18.45;;;14.00;;
42702;SDS011;28341;52.064;4.920;2023-10-13T04:56:06;16.77;;;15.05;;
42702;SDS011;28341;52.064;4.920;2023-10-13T04:58:31;20.63;;;15.98;;
42702;SDS011;28341;52.064;4.920;2023-10-13T05:01:06;18.40;;;14.98;;
42702;SDS011;28341;52.064;4.920;2023-10-13T05:03:23;22.05;;;16.23;;
42702;SDS011;28341;52.064;4.920;2023-10-13T05:05:53;25.35;;;17.40;;
42702;SDS011;28341;52.064;4.920;2023-10-13T05:08:10;17.75;;;15.90;;
42702;SDS011;28341;52.064;4.920;2023-10-13T05:10:27;22.08;;;16.05;;
42702;SDS011;28341;52.064;4.920;2023-10-13T05:12:46;20.40;;;15.35;;
42702;SDS011;28341;52.064;4.920;2023-10-13T05:15:03;21.02;;;13.77;;
42702;SDS011;28341;52.064;4.920;2023-10-13T05:17:21;20.60;;;13.60;;
42702;SDS011;28341;52.064;4.920;2023-10-13T05:19:38;18.55;;;12.43;;
42702;SDS011;28341;52.064;4.920;2023-10-13T05:21:55;24.83;;;12.88;;
42702;SDS011;28341;52.064;4.920;2023-10-13T05:24:11;18.73;;;10.35;;
42702;SDS011;28341;52.064;4.920;2023-10-13T05:26:28;18.58;;;9.48;;
42702;SDS011;28341;52.064;4.920;2023-10-13T05:28:47;16.52;;;9.43;;
42702;SDS011;28341;52.064;4.920;2023-10-13T05:31:04;22.08;;;8.68;;
42702;SDS011;28341;52.064;4.920;2023-10-13T05:33:22;17.23;;;8.57;;
42702;SDS011;28341;52.064;4.920;2023-10-13T05:35:38;19.20;;;7.65;;
42702;SDS011;28341;52.064;4.920;2023-10-13T05:37:55;17.80;;;7.93;;
42702;SDS011;28341;52.064;4.920;2023-10-13T05:40:12;19.63;;;7.60;;
42702;SDS011;28341;52.064;4.920;2023-10-13T05:42:28;19.50;;;7.78;;
42702;SDS011;28341;52.064;4.920;2023-10-13T05:44:48;18.65;;;6.95;;
42702;SDS011;28341;52.064;4.920;2023-10-13T05:47:19;18.65;;;7.20;;
42702;SDS011;28341;52.064;4.920;2023-10-13T05:49:38;17.73;;;7.38;;
42702;SDS011;28341;52.064;4.920;2023-10-13T05:52:05;20.98;;;8.20;;
42702;SDS011;28341;52.064;4.920;2023-10-13T05:54:19;18.38;;;8.32;;
42702;SDS011;28341;52.064;4.920;2023-10-13T05:56:35;19.67;;;9.73;;
42702;SDS011;28341;52.064;4.920;2023-10-13T05:58:52;31.50;;;15.52;;
42702;SDS011;28341;52.064;4.920;2023-10-13T06:01:14;22.42;;;11.07;;
42702;SDS011;28341;52.064;4.920;2023-10-13T06:03:31;17.27;;;9.73;;
42702;SDS011;28341;52.064;4.920;2023-10-13T06:05:48;17.63;;;8.32;;
42702;SDS011;28341;52.064;4.920;2023-10-13T06:08:05;20.48;;;8.73;;
42702;SDS011;28341;52.064;4.920;2023-10-13T06:10:22;14.52;;;8.32;;
42702;SDS011;28341;52.064;4.920;2023-10-13T06:12:38;18.00;;;7.80;;
42702;SDS011;28341;52.064;4.920;2023-10-13T06:14:55;19.77;;;8.77;;
42702;SDS011;28341;52.064;4.920;2023-10-13T06:17:14;17.08;;;8.27;;
42702;SDS011;28341;52.064;4.920;2023-10-13T06:19:31;18.63;;;8.75;;
42702;SDS011;28341;52.064;4.920;2023-10-13T06:21:48;17.05;;;7.97;;
42702;SDS011;28341;52.064;4.920;2023-10-13T06:24:05;19.70;;;8.95;;
42702;SDS011;28341;52.064;4.920;2023-10-13T06:26:22;16.33;;;9.77;;
42702;SDS011;28341;52.064;4.920;2023-10-13T06:28:39;25.35;;;16.85;;
42702;SDS011;28341;52.064;4.920;2023-10-13T06:30:53;21.63;;;15.00;;
42702;SDS011;28341;52.064;4.920;2023-10-13T06:33:02;20.33;;;11.23;;
42702;SDS011;28341;52.064;4.920;2023-10-13T06:35:08;18.85;;;11.38;;
42702;SDS011;28341;52.064;4.920;2023-10-13T06:37:18;18.05;;;10.32;;
42702;SDS011;28341;52.064;4.920;2023-10-13T06:39:26;22.55;;;14.55;;
42702;SDS011;28341;52.064;4.920;2023-10-13T06:41:46;29.40;;;19.33;;
42702;SDS011;28341;52.064;4.920;2023-10-13T06:43:51;18.15;;;10.90;;
42702;SDS011;28341;52.064;4.920;2023-10-13T06:46:05;19.13;;;10.10;;
42702;SDS011;28341;52.064;4.920;2023-10-13T06:48:17;21.52;;;10.35;;
42702;SDS011;28341;52.064;4.920;2023-10-13T06:50:21;16.15;;;11.43;;
42702;SDS011;28341;52.064;4.920;2023-10-13T06:52:26;25.67;;;11.82;;
42702;SDS011;28341;52.064;4.920;2023-10-13T06:54:31;19.75;;;11.75;;
42702;SDS011;28341;52.064;4.920;2023-10-13T06:56:33;24.73;;;13.02;;
42702;SDS011;28341;52.064;4.920;2023-10-13T06:58:39;18.42;;;14.45;;
42702;SDS011;28341;52.064;4.920;2023-10-13T07:00:44;22.50;;;15.32;;
42702;SDS011;28341;52.064;4.920;2023-10-13T07:02:53;20.77;;;17.40;;
42702;SDS011;28341;52.064;4.920;2023-10-13T07:05:08;23.63;;;19.40;;
42702;SDS011;28341;52.064;4.920;2023-10-13T07:07:14;24.08;;;20.65;;
42702;SDS011;28341;52.064;4.920;2023-10-13T07:09:18;27.15;;;21.17;;
42702;SDS011;28341;52.064;4.920;2023-10-13T07:11:35;31.33;;;22.40;;
42702;SDS011;28341;52.064;4.920;2023-10-13T07:13:43;25.90;;;21.67;;
42702;SDS011;28341;52.064;4.920;2023-10-13T07:15:52;27.50;;;20.95;;
42702;SDS011;28341;52.064;4.920;2023-10-13T07:18:00;23.40;;;19.40;;
42702;SDS011;28341;52.064;4.920;2023-10-13T07:20:09;23.45;;;17.75;;
42702;SDS011;28341;52.064;4.920;2023-10-13T07:22:24;22.60;;;17.20;;
42702;SDS011;28341;52.064;4.920;2023-10-13T07:24:28;22.00;;;15.02;;
42702;SDS011;28341;52.064;4.920;2023-10-13T07:26:31;22.02;;;14.07;;
42702;SDS011;28341;52.064;4.920;2023-10-13T07:28:42;20.73;;;13.32;;
42702;SDS011;28341;52.064;4.920;2023-10-13T07:30:47;25.30;;;13.50;;
42702;SDS011;28341;52.064;4.920;2023-10-13T07:33:12;23.38;;;12.30;;
42702;SDS011;28341;52.064;4.920;2023-10-13T07:35:22;52.33;;;37.65;;
42702;SDS011;28341;52.064;4.920;2023-10-13T07:37:31;23.48;;;11.80;;
42702;SDS011;28341;52.064;4.920;2023-10-13T07:39:35;19.55;;;10.65;;
42702;SDS011;28341;52.064;4.920;2023-10-13T07:41:40;25.13;;;11.77;;
42702;SDS011;28341;52.064;4.920;2023-10-13T07:43:42;19.73;;;10.80;;
42702;SDS011;28341;52.064;4.920;2023-10-13T07:45:49;19.77;;;10.82;;
42702;SDS011;28341;52.064;4.920;2023-10-13T07:47:58;20.48;;;10.88;;
42702;SDS011;28341;52.064;4.920;2023-10-13T07:50:00;22.57;;;10.57;;
42702;SDS011;28341;52.064;4.920;2023-10-13T07:52:10;22.58;;;10.57;;
42702;SDS011;28341;52.064;4.920;2023-10-13T07:54:24;21.15;;;10.40;;
42702;SDS011;28341;52.064;4.920;2023-10-13T07:56:28;24.33;;;10.57;;
42702;SDS011;28341;52.064;4.920;2023-10-13T07:58:32;21.42;;;9.57;;
42702;SDS011;28341;52.064;4.920;2023-10-13T08:00:47;21.98;;;8.88;;
42702;SDS011;28341;52.064;4.920;2023-10-13T08:03:06;20.65;;;9.60;;
42702;SDS011;28341;52.064;4.920;2023-10-13T08:07:32;21.98;;;9.45;;
42702;SDS011;28341;52.064;4.920;2023-10-13T08:09:34;20.80;;;9.63;;
42702;SDS011;28341;52.064;4.920;2023-10-13T08:11:41;24.35;;;13.57;;
42702;SDS011;28341;52.064;4.920;2023-10-13T08:13:46;22.80;;;11.10;;
42702;SDS011;28341;52.064;4.920;2023-10-13T08:15:54;24.33;;;9.75;;
42702;SDS011;28341;52.064;4.920;2023-10-13T08:18:06;19.48;;;8.55;;
42702;SDS011;28341;52.064;4.920;2023-10-13T08:20:18;23.23;;;8.80;;
42702;SDS011;28341;52.064;4.920;2023-10-13T08:22:22;20.15;;;8.75;;
42702;SDS011;28341;52.064;4.920;2023-10-13T08:24:39;24.08;;;9.00;;
42702;SDS011;28341;52.064;4.920;2023-10-13T08:26:55;21.92;;;8.52;;
42702;SDS011;28341;52.064;4.920;2023-10-13T08:29:12;20.38;;;8.85;;
42702;SDS011;28341;52.064;4.920;2023-10-13T08:31:28;18.52;;;8.98;;
42702;SDS011;28341;52.064;4.920;2023-10-13T08:33:41;21.98;;;8.20;;
42702;SDS011;28341;52.064;4.920;2023-10-13T08:35:47;16.45;;;8.55;;
42702;SDS011;28341;52.064;4.920;2023-10-13T08:38:04;32.75;;;17.05;;
42702;SDS011;28341;52.064;4.920;2023-10-13T08:40:16;26.95;;;9.55;;
42702;SDS011;28341;52.064;4.920;2023-10-13T08:42:41;19.48;;;8.55;;
42702;SDS011;28341;52.064;4.920;2023-10-13T08:45:10;18.60;;;8.30;;
42702;SDS011;28341;52.064;4.920;2023-10-13T08:47:21;26.60;;;9.18;;
42702;SDS011;28341;52.064;4.920;2023-10-13T08:49:36;23.92;;;7.97;;
42702;SDS011;28341;52.064;4.920;2023-10-13T08:51:50;25.98;;;8.23;;
42702;SDS011;28341;52.064;4.920;2023-10-13T08:54:05;23.52;;;9.02;;
42702;SDS011;28341;52.064;4.920;2023-10-13T08:56:21;20.30;;;7.68;;
42702;SDS011;28341;52.064;4.920;2023-10-13T08:58:36;20.15;;;7.82;;
42702;SDS011;28341;52.064;4.920;2023-10-13T09:00:53;20.08;;;8.25;;
42702;SDS011;28341;52.064;4.920;2023-10-13T09:03:12;39.38;;;24.38;;
42702;SDS011;28341;52.064;4.920;2023-10-13T09:05:29;25.70;;;15.20;;
42702;SDS011;28341;52.064;4.920;2023-10-13T09:08:01;22.30;;;8.70;;
42702;SDS011;28341;52.064;4.920;2023-10-13T09:10:09;29.73;;;9.00;;
42702;SDS011;28341;52.064;4.920;2023-10-13T09:12:35;22.40;;;8.95;;
42702;SDS011;28341;52.064;4.920;2023-10-13T09:14:40;27.23;;;8.90;;
42702;SDS011;28341;52.064;4.920;2023-10-13T09:16:48;24.33;;;8.45;;
42702;SDS011;28341;52.064;4.920;2023-10-13T09:19:08;23.27;;;8.25;;
42702;SDS011;28341;52.064;4.920;2023-10-13T09:21:12;22.98;;;8.45;;
42702;SDS011;28341;52.064;4.920;2023-10-13T09:23:31;17.95;;;7.57;;
42702;SDS011;28341;52.064;4.920;2023-10-13T09:25:49;24.60;;;8.90;;
42702;SDS011;28341;52.064;4.920;2023-10-13T09:28:01;22.05;;;8.00;;
42702;SDS011;28341;52.064;4.920;2023-10-13T09:30:10;19.75;;;7.43;;
42702;SDS011;28341;52.064;4.920;2023-10-13T09:32:18;18.33;;;7.65;;
42702;SDS011;28341;52.064;4.920;2023-10-13T09:34:22;25.17;;;8.75;;
42702;SDS011;28341;52.064;4.920;2023-10-13T09:36:29;25.25;;;8.02;;
42702;SDS011;28341;52.064;4.920;2023-10-13T09:38:36;22.90;;;8.30;;
42702;SDS011;28341;52.064;4.920;2023-10-13T09:40:40;19.27;;;7.35;;
42702;SDS011;28341;52.064;4.920;2023-10-13T09:42:50;15.57;;;7.22;;
42702;SDS011;28341;52.064;4.920;2023-10-13T09:44:54;26.87;;;8.47;;
42702;SDS011;28341;52.064;4.920;2023-10-13T09:47:04;24.20;;;7.30;;
42702;SDS011;28341;52.064;4.920;2023-10-13T09:51:45;21.85;;;7.88;;
42702;SDS011;28341;52.064;4.920;2023-10-13T09:53:48;16.55;;;7.55;;
42702;SDS011;28341;52.064;4.920;2023-10-13T09:56:00;27.58;;;12.18;;
42702;SDS011;28341;52.064;4.920;2023-10-13T09:58:14;27.95;;;15.15;;
42702;SDS011;28341;52.064;4.920;2023-10-13T10:00:31;20.30;;;8.02;;
42702;SDS011;28341;52.064;4.920;2023-10-13T10:02:47;19.00;;;7.28;;
42702;SDS011;28341;52.064;4.920;2023-10-13T10:04:57;22.48;;;8.15;;
42702;SDS011;28341;52.064;4.920;2023-10-13T10:07:12;21.10;;;7.80;;
42702;SDS011;28341;52.064;4.920;2023-10-13T10:09:29;23.35;;;8.13;;
42702;SDS011;28341;52.064;4.920;2023-10-13T10:11:48;25.23;;;7.95;;
42702;SDS011;28341;52.064;4.920;2023-10-13T10:14:19;18.02;;;7.65;;
42702;SDS011;28341;52.064;4.920;2023-10-13T10:16:35;20.90;;;8.07;;
42702;SDS011;28341;52.064;4.920;2023-10-13T10:18:47;18.35;;;8.15;;
42702;SDS011;28341;52.064;4.920;2023-10-13T10:20:51;20.88;;;7.68;;
42702;SDS011;28341;52.064;4.920;2023-10-13T10:23:08;22.15;;;8.00;;
42702;SDS011;28341;52.064;4.920;2023-10-13T10:25:28;21.17;;;8.55;;
42702;SDS011;28341;52.064;4.920;2023-10-13T10:27:34;19.90;;;8.43;;
42702;SDS011;28341;52.064;4.920;2023-10-13T10:29:39;29.88;;;8.20;;
42702;SDS011;28341;52.064;4.920;2023-10-13T10:31:46;23.77;;;8.35;;
42702;SDS011;28341;52.064;4.920;2023-10-13T10:33:51;21.85;;;7.43;;
42702;SDS011;28341;52.064;4.920;2023-10-13T10:35:58;20.23;;;6.70;;
42702;SDS011;28341;52.064;4.920;2023-10-13T10:38:09;18.02;;;7.53;;
42702;SDS011;28341;52.064;4.920;2023-10-13T10:40:17;69.38;;;57.45;;
42702;SDS011;28341;52.064;4.920;2023-10-13T10:42:35;31.40;;;15.27;;
42702;SDS011;28341;52.064;4.920;2023-10-13T10:44:40;18.63;;;7.82;;
42702;SDS011;28341;52.064;4.920;2023-10-13T10:46:46;21.80;;;7.78;;
42702;SDS011;28341;52.064;4.920;2023-10-13T10:48:57;23.30;;;7.80;;
42702;SDS011;28341;52.064;4.920;2023-10-13T10:51:05;15.77;;;7.03;;
42702;SDS011;28341;52.064;4.920;2023-10-13T10:53:14;24.80;;;7.60;;
42702;SDS011;28341;52.064;4.920;2023-10-13T10:55:19;21.75;;;8.10;;
42702;SDS011;28341;52.064;4.920;2023-10-13T10:57:28;18.67;;;7.70;;
42702;SDS011;28341;52.064;4.920;2023-10-13T10:59:37;21.80;;;8.23;;
42702;SDS011;28341;52.064;4.920;2023-10-13T11:01:42;21.55;;;8.18;;
42702;SDS011;28341;52.064;4.920;2023-10-13T11:03:54;20.08;;;7.88;;
42702;SDS011;28341;52.064;4.920;2023-10-13T11:06:11;19.75;;;8.13;;
42702;SDS011;28341;52.064;4.920;2023-10-13T11:08:20;22.95;;;7.75;;
42702;SDS011;28341;52.064;4.920;2023-10-13T11:10:31;25.23;;;7.40;;
42702;SDS011;28341;52.064;4.920;2023-10-13T11:12:39;24.67;;;8.35;;
42702;SDS011;28341;52.064;4.920;2023-10-13T11:14:44;21.65;;;7.32;;
42702;SDS011;28341;52.064;4.920;2023-10-13T11:16:53;22.15;;;7.88;;
42702;SDS011;28341;52.064;4.920;2023-10-13T11:19:01;19.55;;;7.50;;
42702;SDS011;28341;52.064;4.920;2023-10-13T11:21:05;24.70;;;8.00;;
42702;SDS011;28341;52.064;4.920;2023-10-13T11:23:12;23.30;;;7.25;;
42702;SDS011;28341;52.064;4.920;2023-10-13T11:25:20;22.23;;;7.82;;
42702;SDS011;28341;52.064;4.920;2023-10-13T11:29:45;17.83;;;7.55;;
42702;SDS011;28341;52.064;4.920;2023-10-13T11:31:55;24.30;;;7.80;;
42702;SDS011;28341;52.064;4.920;2023-10-13T11:34:00;19.80;;;6.68;;
42702;SDS011;28341;52.064;4.920;2023-10-13T11:36:06;22.60;;;7.10;;
42702;SDS011;28341;52.064;4.920;2023-10-13T11:38:17;21.85;;;7.25;;
42702;SDS011;28341;52.064;4.920;2023-10-13T11:40:25;27.50;;;7.32;;
42702;SDS011;28341;52.064;4.920;2023-10-13T11:42:42;25.52;;;13.75;;
42702;SDS011;28341;52.064;4.920;2023-10-13T11:44:47;28.48;;;11.63;;
42702;SDS011;28341;52.064;4.920;2023-10-13T11:47:04;21.42;;;7.15;;
42702;SDS011;28341;52.064;4.920;2023-10-13T11:49:33;18.70;;;7.22;;
42702;SDS011;28341;52.064;4.920;2023-10-13T11:51:37;17.52;;;6.53;;
42702;SDS011;28341;52.064;4.920;2023-10-13T11:53:45;21.02;;;6.82;;
42702;SDS011;28341;52.064;4.920;2023-10-13T11:55:52;18.63;;;7.10;;
42702;SDS011;28341;52.064;4.920;2023-10-13T11:57:56;19.48;;;7.10;;
42702;SDS011;28341;52.064;4.920;2023-10-13T12:00:02;22.85;;;7.40;;
42702;SDS011;28341;52.064;4.920;2023-10-13T12:02:29;24.40;;;7.78;;
42702;SDS011;28341;52.064;4.920;2023-10-13T12:04:46;21.33;;;7.63;;
42702;SDS011;28341;52.064;4.920;2023-10-13T12:06:51;16.45;;;6.65;;
42702;SDS011;28341;52.064;4.920;2023-10-13T12:09:15;22.73;;;7.47;;
42702;SDS011;28341;52.064;4.920;2023-10-13T12:11:42;39.95;;;21.85;;
42702;SDS011;28341;52.064;4.920;2023-10-13T12:13:46;19.77;;;11.10;;
42702;SDS011;28341;52.064;4.920;2023-10-13T12:15:51;23.55;;;7.43;;
42702;SDS011;28341;52.064;4.920;2023-10-13T12:17:59;21.00;;;6.53;;
42702;SDS011;28341;52.064;4.920;2023-10-13T12:20:04;25.10;;;7.85;;
42702;SDS011;28341;52.064;4.920;2023-10-13T12:22:18;26.30;;;8.00;;
42702;SDS011;28341;52.064;4.920;2023-10-13T12:24:28;22.05;;;7.40;;
42702;SDS011;28341;52.064;4.920;2023-10-13T12:28:44;21.90;;;7.25;;
42702;SDS011;28341;52.064;4.920;2023-10-13T12:30:52;27.65;;;7.18;;
42702;SDS011;28341;52.064;4.920;2023-10-13T12:33:00;20.58;;;7.70;;
42702;SDS011;28341;52.064;4.920;2023-10-13T12:35:09;28.33;;;7.40;;
42702;SDS011;28341;52.064;4.920;2023-10-13T12:37:28;25.60;;;7.05;;
42702;SDS011;28341;52.064;4.920;2023-10-13T12:39:52;21.15;;;7.20;;
42702;SDS011;28341;52.064;4.920;2023-10-13T12:42:09;20.38;;;7.25;;
42702;SDS011;28341;52.064;4.920;2023-10-13T12:44:25;22.80;;;6.95;;
42702;SDS011;28341;52.064;4.920;2023-10-13T12:46:42;20.88;;;7.47;;
42702;SDS011;28341;52.064;4.920;2023-10-13T12:49:01;22.83;;;7.18;;
42702;SDS011;28341;52.064;4.920;2023-10-13T12:51:28;24.30;;;8.02;;
42702;SDS011;28341;52.064;4.920;2023-10-13T12:53:51;18.73;;;7.78;;
42702;SDS011;28341;52.064;4.920;2023-10-13T12:56:04;24.52;;;7.72;;
42702;SDS011;28341;52.064;4.920;2023-10-13T12:58:11;21.10;;;8.07;;
42702;SDS011;28341;52.064;4.920;2023-10-13T13:00:16;20.08;;;7.93;;
42702;SDS011;28341;52.064;4.920;2023-10-13T13:02:22;18.00;;;7.22;;
42702;SDS011;28341;52.064;4.920;2023-10-13T13:04:30;29.15;;;7.88;;
42702;SDS011;28341;52.064;4.920;2023-10-13T13:06:36;23.15;;;7.95;;